createdAt,value
2017-06-17T00:01:24.697Z,3.50
2017-06-17T00:03:52.174Z,2.50
2017-06-17T00:06:20.441Z,3.05
2017-06-17T00:08:47.961Z,2.80
2017-06-17T00:11:15.457Z,2.85
2017-06-17T00:13:42.978Z,2.87
2017-06-17T00:16:10.475Z,2.45
2017-06-17T00:18:37.985Z,2.80
2017-06-17T00:21:05.452Z,2.90
2017-06-17T00:23:32.964Z,2.65
2017-06-17T00:26:01.200Z,2.40
2017-06-17T00:28:28.704Z,2.90
2017-06-17T00:30:56.968Z,2.65
2017-06-17T00:33:25.217Z,3.05
2017-06-17T00:35:52.705Z,2.75
2017-06-17T00:38:20.948Z,2.80
2017-06-17T00:40:48.425Z,3.12
2017-06-17T00:43:15.930Z,2.47
2017-06-17T00:45:43.409Z,2.70
2017-06-17T00:48:10.892Z,1.83
2017-06-17T00:50:38.364Z,2.10
2017-06-17T00:53:06.621Z,2.45
2017-06-17T00:55:34.104Z,3.05
2017-06-17T00:58:02.356Z,2.47
2017-06-17T01:00:29.830Z,2.45
2017-06-17T01:02:58.080Z,2.53
2017-06-17T01:05:25.613Z,2.10
2017-06-17T01:07:53.093Z,3.17
2017-06-17T01:10:20.585Z,2.22
2017-06-17T01:12:48.820Z,2.20
2017-06-17T01:15:16.325Z,2.40
2017-06-17T01:17:44.569Z,2.03
2017-06-17T01:20:12.065Z,2.42
2017-06-17T01:22:40.349Z,2.40
2017-06-17T01:25:07.826Z,2.22
2017-06-17T01:27:35.305Z,2.40
2017-06-17T01:30:02.792Z,2.67
2017-06-17T01:32:30.269Z,2.55
2017-06-17T01:34:58.539Z,2.58
2017-06-17T01:37:26.789Z,2.60
2017-06-17T01:39:54.288Z,2.35
2017-06-17T01:42:22.533Z,2.72
2017-06-17T01:44:50.011Z,2.08
2017-06-17T01:47:18.267Z,2.10
2017-06-17T01:49:45.736Z,2.10
2017-06-17T01:52:13.232Z,2.55
2017-06-17T01:54:40.712Z,1.90
2017-06-17T01:57:08.211Z,2.25
2017-06-17T01:59:35.681Z,2.20
2017-06-17T02:02:03.944Z,2.70
2017-06-17T02:04:31.417Z,1.80
2017-06-17T02:06:59.665Z,2.15
2017-06-17T02:09:27.148Z,3.03
2017-06-17T02:11:55.388Z,2.45
2017-06-17T02:14:22.885Z,2.30
2017-06-17T02:16:51.170Z,2.80
2017-06-17T02:19:18.639Z,2.30
2017-06-17T02:21:46.112Z,2.37
2017-06-17T02:24:13.627Z,1.92
2017-06-17T02:26:41.876Z,2.40
2017-06-17T02:29:09.365Z,2.15
2017-06-17T02:31:37.610Z,2.40
2017-06-17T02:34:05.077Z,2.70
2017-06-17T02:36:32.585Z,2.75
2017-06-17T02:39:00.084Z,2.00
2017-06-17T02:41:27.556Z,2.90
2017-06-17T02:43:55.041Z,3.25
2017-06-17T02:46:23.305Z,2.40
2017-06-17T02:48:51.549Z,2.67
2017-06-17T02:51:19.036Z,2.92
2017-06-17T02:53:47.288Z,2.67
2017-06-17T02:56:14.776Z,2.03
2017-06-17T02:58:43.021Z,2.20
2017-06-17T03:01:10.497Z,2.62
2017-06-17T03:03:38.757Z,2.83
2017-06-17T03:06:06.229Z,2.70
2017-06-17T03:08:33.768Z,2.40
2017-06-17T03:11:01.301Z,2.83
2017-06-17T03:13:28.768Z,3.25
2017-06-17T03:15:56.245Z,2.92
2017-06-17T03:18:23.736Z,2.30
2017-06-17T03:20:51.981Z,3.10
2017-06-17T03:23:19.476Z,2.97
2017-06-17T03:25:47.717Z,2.75
2017-06-17T03:28:15.200Z,2.90
2017-06-17T03:30:43.441Z,2.85
2017-06-17T03:33:10.932Z,2.72
2017-06-17T03:35:39.173Z,2.33
2017-06-17T03:38:06.712Z,2.55
2017-06-17T03:40:34.200Z,3.10
2017-06-17T03:43:01.729Z,2.65
2017-06-17T03:45:29.208Z,2.58
2017-06-17T03:47:56.680Z,2.97
2017-06-17T03:50:24.182Z,2.20
2017-06-17T03:52:51.653Z,3.05
2017-06-17T03:55:19.153Z,3.87
2017-06-17T03:57:46.676Z,2.87
2017-06-17T04:00:14.148Z,3.22
2017-06-17T04:02:41.630Z,2.85
2017-06-17T04:05:09.121Z,2.87
2017-06-17T04:07:37.363Z,4.45
2017-06-17T04:10:04.845Z,2.90
2017-06-17T04:12:33.080Z,3.15
2017-06-17T04:15:00.588Z,3.05
2017-06-17T04:17:28.836Z,3.37
2017-06-17T04:19:56.333Z,3.37
2017-06-17T04:22:23.807Z,3.12
2017-06-17T04:24:51.375Z,3.22
2017-06-17T04:27:18.861Z,3.25
2017-06-17T04:29:46.345Z,3.37
2017-06-17T04:32:14.604Z,2.92
2017-06-17T04:34:42.098Z,3.70
2017-06-17T04:37:09.594Z,3.50
2017-06-17T04:39:37.092Z,3.55
2017-06-17T04:42:04.574Z,3.25
2017-06-17T04:44:32.113Z,3.10
2017-06-17T04:47:00.344Z,2.90
2017-06-17T04:49:27.821Z,2.50
2017-06-17T04:51:55.312Z,2.50
2017-06-17T04:54:23.557Z,2.67
2017-06-17T04:56:51.045Z,2.87
2017-06-17T04:59:19.290Z,3.10
2017-06-17T05:01:46.784Z,2.70
2017-06-17T05:04:15.030Z,2.67
2017-06-17T05:06:42.504Z,2.40
2017-06-17T05:09:10.768Z,3.12
2017-06-17T05:11:38.255Z,2.55
2017-06-17T05:14:06.522Z,3.87
2017-06-17T05:16:34.761Z,3.85
2017-06-17T05:19:02.265Z,3.00
2017-06-17T05:21:30.520Z,2.78
2017-06-17T05:23:58.761Z,3.37
2017-06-17T05:26:26.270Z,3.30
2017-06-17T05:28:54.512Z,2.90
2017-06-17T05:31:21.993Z,2.80
2017-06-17T05:33:50.252Z,3.10
2017-06-17T05:36:17.739Z,3.60
2017-06-17T05:38:46.002Z,2.65
2017-06-17T05:41:14.241Z,2.65
2017-06-17T05:43:41.739Z,3.20
2017-06-17T05:46:09.976Z,3.10
2017-06-17T05:48:37.461Z,4.05
2017-06-17T05:51:04.980Z,2.55
2017-06-17T05:53:32.469Z,3.03
2017-06-17T05:55:59.973Z,2.85
2017-06-17T05:58:27.484Z,3.80
2017-06-17T06:00:54.964Z,2.87
2017-06-17T06:03:23.308Z,2.85
2017-06-17T06:05:50.792Z,2.78
2017-06-17T06:08:19.080Z,3.62
2017-06-17T06:10:47.336Z,3.45
2017-06-17T06:13:14.812Z,4.40
2017-06-17T06:15:43.075Z,4.05
2017-06-17T06:18:10.565Z,4.00
2017-06-17T06:20:38.072Z,3.50
2017-06-17T06:23:05.561Z,3.90
2017-06-17T06:25:33.833Z,4.00
2017-06-17T06:28:02.146Z,4.93
2017-06-17T06:30:29.653Z,4.25
2017-06-17T06:32:57.137Z,4.53
2017-06-17T06:35:25.408Z,5.00
2017-06-17T06:37:53.656Z,4.73
2017-06-17T06:40:21.134Z,4.35
2017-06-17T06:42:48.655Z,4.10
2017-06-17T06:45:16.133Z,4.60
2017-06-17T06:47:43.629Z,5.10
2017-06-17T06:50:11.128Z,5.22
2017-06-17T06:52:38.602Z,5.00
2017-06-17T06:55:06.102Z,4.45
2017-06-17T06:57:34.344Z,3.95
2017-06-17T07:00:01.850Z,4.20
2017-06-17T07:02:29.344Z,3.80
2017-06-17T07:04:56.864Z,3.00
2017-06-17T07:07:26.220Z,3.30
2017-06-17T07:09:53.697Z,3.10
2017-06-17T07:12:21.178Z,2.17
2017-06-17T07:14:49.437Z,2.37
2017-06-17T07:17:16.940Z,2.70
2017-06-17T07:19:44.431Z,2.60
2017-06-17T07:22:11.928Z,3.30
2017-06-17T07:24:40.192Z,2.07
2017-06-17T07:27:07.672Z,3.10
2017-06-17T07:29:35.172Z,2.20
2017-06-17T07:32:02.677Z,2.13
2017-06-17T07:34:30.925Z,2.70
2017-06-17T07:36:58.406Z,1.97
2017-06-17T07:39:26.664Z,1.90
2017-06-17T07:41:54.141Z,2.30
2017-06-17T07:44:22.410Z,2.40
2017-06-17T07:46:50.652Z,1.97
2017-06-17T07:49:18.157Z,1.90
2017-06-17T07:51:46.410Z,2.50
2017-06-17T07:54:13.885Z,2.20
2017-06-17T07:56:42.175Z,2.03
2017-06-17T07:59:10.405Z,1.93
2017-06-17T08:01:37.889Z,1.80
2017-06-17T08:04:05.389Z,2.60
2017-06-17T08:06:32.872Z,1.73
2017-06-17T08:09:00.360Z,1.80
2017-06-17T08:11:28.600Z,1.53
2017-06-17T08:13:56.089Z,1.50
2017-06-17T08:16:23.573Z,1.40
2017-06-17T08:18:51.874Z,1.37
2017-06-17T08:21:19.345Z,1.93
2017-06-17T08:23:46.851Z,1.50
2017-06-17T08:26:15.126Z,2.07
2017-06-17T08:28:43.359Z,1.57
2017-06-17T08:31:10.852Z,1.30
2017-06-17T08:33:38.325Z,1.50
2017-06-17T08:36:06.577Z,1.97
2017-06-17T08:38:34.076Z,1.50
2017-06-17T08:41:01.553Z,1.40
2017-06-17T08:43:29.064Z,1.23
2017-06-17T08:45:56.536Z,1.30
2017-06-17T08:48:24.789Z,1.20
2017-06-17T08:50:52.269Z,1.00
2017-06-17T08:53:20.508Z,1.20
2017-06-17T08:55:48.009Z,1.20
2017-06-17T08:58:16.264Z,1.20
2017-06-17T09:00:43.776Z,1.10
2017-06-17T09:03:11.244Z,1.57
2017-06-17T09:05:38.712Z,1.20
2017-06-17T09:08:06.221Z,1.10
2017-06-17T09:10:34.453Z,0.90
2017-06-17T09:13:01.980Z,1.10
2017-06-17T09:15:29.449Z,1.10
2017-06-17T09:17:56.949Z,1.10
2017-06-17T09:20:24.432Z,1.23
2017-06-17T09:22:51.929Z,1.20
2017-06-17T09:25:19.452Z,1.30
2017-06-17T09:27:46.956Z,1.20
2017-06-17T09:30:14.445Z,1.23
2017-06-17T09:32:42.690Z,1.10
2017-06-17T09:35:10.160Z,0.80
2017-06-17T09:37:37.659Z,1.20
2017-06-17T09:40:05.164Z,1.10
2017-06-17T09:42:32.632Z,1.07
2017-06-17T09:45:00.155Z,1.00
2017-06-17T09:47:27.620Z,1.10
2017-06-17T09:49:55.116Z,1.10
2017-06-17T09:52:22.600Z,1.40
2017-06-17T09:54:50.869Z,1.40
2017-06-17T09:57:19.239Z,1.40
2017-06-17T09:59:46.736Z,0.97
2017-06-17T10:02:14.232Z,1.13
2017-06-17T10:04:41.692Z,1.00
2017-06-17T10:07:09.178Z,0.90
2017-06-17T10:09:37.421Z,1.23
2017-06-17T10:12:04.904Z,1.03
2017-06-17T10:14:33.259Z,1.10
2017-06-17T10:17:00.726Z,1.27
2017-06-17T10:19:28.192Z,1.00
2017-06-17T10:21:55.688Z,1.20
2017-06-17T10:24:23.174Z,1.17
2017-06-17T10:26:50.712Z,1.10
2017-06-17T10:29:18.182Z,1.20
2017-06-17T10:31:46.239Z,1.17
2017-06-17T10:34:13.728Z,1.23
2017-06-17T10:36:41.205Z,1.33
2017-06-17T10:39:08.698Z,1.33
2017-06-17T10:41:36.945Z,1.30
2017-06-17T10:44:04.410Z,1.20
2017-06-17T10:46:32.026Z,1.50
2017-06-17T10:48:59.512Z,1.40
2017-06-17T10:51:27.043Z,1.30
2017-06-17T10:53:54.533Z,1.07
2017-06-17T10:56:22.060Z,1.30
2017-06-17T10:58:49.557Z,1.20
2017-06-17T11:01:17.128Z,1.20
2017-06-17T11:03:44.625Z,1.40
2017-06-17T11:06:12.095Z,1.20
2017-06-17T11:08:39.569Z,1.30
2017-06-17T11:11:07.111Z,1.37
2017-06-17T11:13:34.594Z,1.43
2017-06-17T11:16:02.123Z,1.10
2017-06-17T11:18:29.609Z,1.23
2017-06-17T11:20:57.109Z,1.33
2017-06-17T11:23:25.379Z,1.10
2017-06-17T11:25:52.844Z,1.27
2017-06-17T11:28:21.115Z,1.40
2017-06-17T11:30:49.344Z,1.20
2017-06-17T11:33:16.832Z,1.40
2017-06-17T11:35:44.304Z,0.90
2017-06-17T11:38:12.565Z,0.90
2017-06-17T11:40:40.036Z,0.80
2017-06-17T11:43:08.273Z,0.83
2017-06-17T11:45:35.757Z,0.90
2017-06-17T11:48:03.225Z,0.90
2017-06-17T11:50:30.717Z,0.87
2017-06-17T11:52:58.181Z,0.80
2017-06-17T11:55:25.678Z,0.90
2017-06-17T11:57:53.147Z,0.90
2017-06-17T12:00:20.637Z,0.90
2017-06-17T12:02:48.114Z,0.80
2017-06-17T12:05:15.679Z,0.80
2017-06-17T12:07:43.184Z,0.80
2017-06-17T12:10:10.652Z,0.80
2017-06-17T12:12:38.912Z,0.80
2017-06-17T12:15:06.383Z,0.90
2017-06-17T12:17:34.621Z,0.90
2017-06-17T12:20:02.233Z,0.70
2017-06-17T12:22:30.481Z,0.90
2017-06-17T12:24:57.976Z,0.83
2017-06-17T12:27:25.455Z,1.00
2017-06-17T12:29:52.945Z,1.13
2017-06-17T12:32:20.416Z,0.80
2017-06-17T12:34:47.892Z,1.10
2017-06-17T12:37:16.163Z,1.10
2017-06-17T12:39:43.644Z,1.10
2017-06-17T12:42:11.145Z,1.00
2017-06-17T12:44:38.618Z,1.00
2017-06-17T12:47:06.105Z,1.00
2017-06-17T12:49:34.354Z,0.97
2017-06-17T12:52:01.826Z,1.00
2017-06-17T12:54:30.100Z,0.93
2017-06-17T12:56:57.584Z,1.00
2017-06-17T12:59:25.839Z,0.90
2017-06-17T13:01:54.095Z,0.90
2017-06-17T13:04:21.597Z,1.10
2017-06-17T13:06:49.079Z,1.10
2017-06-17T13:09:16.546Z,1.20
2017-06-17T13:11:44.034Z,0.90
2017-06-17T13:14:11.512Z,1.00
2017-06-17T13:16:39.007Z,1.00
2017-06-17T13:19:06.476Z,1.20
2017-06-17T13:21:33.966Z,0.90
2017-06-17T13:24:01.461Z,0.90
2017-06-17T13:26:29.710Z,1.00
2017-06-17T13:28:57.243Z,0.97
2017-06-17T13:31:24.717Z,1.10
2017-06-17T13:33:52.213Z,1.30
2017-06-17T13:36:20.460Z,0.90
2017-06-17T13:38:47.933Z,1.00
2017-06-17T13:41:16.198Z,1.10
2017-06-17T13:43:43.665Z,1.27
2017-06-17T13:46:11.153Z,0.90
2017-06-17T13:48:38.632Z,1.20
2017-06-17T13:51:06.126Z,1.60
2017-06-17T13:53:33.608Z,1.30
2017-06-17T13:56:01.863Z,1.00
2017-06-17T13:58:29.356Z,0.87
2017-06-17T14:00:56.828Z,0.90
2017-06-17T14:03:24.327Z,1.00
2017-06-17T14:05:51.804Z,0.90
2017-06-17T14:08:19.301Z,0.97
2017-06-17T14:10:46.833Z,1.10
2017-06-17T14:13:15.068Z,0.87
2017-06-17T14:15:42.569Z,0.90
2017-06-17T14:18:10.820Z,1.10
2017-06-17T14:20:38.369Z,1.10
2017-06-17T14:23:05.844Z,1.70
2017-06-17T14:25:33.351Z,0.93
2017-06-17T14:28:00.859Z,0.87
2017-06-17T14:30:28.357Z,0.77
2017-06-17T14:32:55.831Z,0.77
2017-06-17T14:35:23.309Z,1.20
2017-06-17T14:37:50.805Z,1.00
2017-06-17T14:40:19.041Z,1.03
2017-06-17T14:42:46.543Z,0.90
2017-06-17T14:45:14.781Z,0.90
2017-06-17T14:47:42.282Z,7.47
2017-06-17T14:50:10.532Z,2.87
2017-06-17T14:52:37.997Z,1.10
2017-06-17T14:55:05.519Z,1.10
2017-06-17T14:57:32.989Z,1.00
2017-06-17T15:00:00.485Z,1.10
2017-06-17T15:02:28.724Z,1.00
2017-06-17T15:04:56.193Z,0.80
2017-06-17T15:07:23.673Z,0.90
2017-06-17T15:09:51.148Z,1.10
2017-06-17T15:12:18.657Z,1.00
2017-06-17T15:14:46.152Z,1.00
2017-06-17T15:17:13.637Z,1.00
2017-06-17T15:19:41.878Z,0.97
2017-06-17T15:22:09.383Z,1.20
2017-06-17T15:24:36.860Z,1.10
2017-06-17T15:27:04.378Z,0.90
2017-06-17T15:29:31.845Z,1.20
2017-06-17T15:32:00.100Z,1.30
2017-06-17T15:34:27.596Z,1.23
2017-06-17T15:36:55.100Z,1.17
2017-06-17T15:39:22.587Z,1.30
2017-06-17T15:41:50.837Z,0.90
2017-06-17T15:44:18.332Z,1.00
2017-06-17T15:46:46.568Z,1.20
2017-06-17T15:49:14.072Z,1.00
2017-06-17T15:51:41.545Z,0.97
2017-06-17T15:54:09.050Z,1.30
2017-06-17T15:56:36.513Z,2.33
2017-06-17T15:59:03.984Z,2.30
2017-06-17T16:01:32.257Z,1.60
2017-06-17T16:04:00.516Z,1.20
2017-06-17T16:06:28.000Z,1.23
2017-06-17T16:08:56.269Z,1.10
2017-06-17T16:11:24.540Z,1.50
2017-06-17T16:13:52.036Z,1.10
2017-06-17T16:16:19.525Z,1.10
2017-06-17T16:18:47.026Z,1.10
2017-06-17T16:21:15.269Z,1.37
2017-06-17T16:23:42.756Z,1.40
2017-06-17T16:26:11.012Z,1.20
2017-06-17T16:28:38.490Z,1.50
2017-06-17T16:31:05.977Z,3.70
2017-06-17T16:33:33.460Z,1.50
2017-06-17T16:36:00.973Z,1.83
2017-06-17T16:38:29.221Z,1.20
2017-06-17T16:40:56.717Z,2.07
2017-06-17T16:43:24.226Z,1.20
2017-06-17T16:45:51.709Z,1.33
2017-06-17T16:48:19.323Z,1.40
2017-06-17T16:50:46.793Z,2.30
2017-06-17T16:53:14.356Z,2.13
2017-06-17T16:55:41.840Z,2.40
2017-06-17T16:58:09.313Z,2.20
2017-06-17T17:00:37.609Z,1.80
2017-06-17T17:03:05.095Z,1.83
2017-06-17T17:05:32.595Z,1.37
2017-06-17T17:08:00.066Z,1.53
2017-06-17T17:10:28.434Z,1.37
2017-06-17T17:12:55.910Z,1.73
2017-06-17T17:15:24.169Z,1.40
2017-06-17T17:17:51.658Z,1.77
2017-06-17T17:20:19.153Z,4.27
2017-06-17T17:22:46.632Z,3.13
2017-06-17T17:25:14.920Z,11.17
2017-06-17T17:27:42.436Z,2.67
2017-06-17T17:30:09.939Z,1.50
2017-06-17T17:32:38.190Z,1.50
2017-06-17T17:35:05.664Z,1.90
2017-06-17T17:37:33.177Z,1.40
2017-06-17T17:40:00.649Z,1.90
2017-06-17T17:42:28.168Z,2.10
2017-06-17T17:44:56.419Z,1.50
2017-06-17T17:47:23.917Z,2.20
2017-06-17T17:49:51.429Z,1.70
2017-06-17T17:52:18.939Z,1.70
2017-06-17T17:54:46.440Z,1.80
2017-06-17T17:57:13.943Z,1.60
2017-06-17T17:59:41.423Z,2.03
2017-06-17T18:02:08.892Z,1.70
2017-06-17T18:04:36.402Z,1.43
2017-06-17T18:07:04.679Z,1.70
2017-06-17T18:09:32.994Z,1.40
2017-06-17T18:12:00.522Z,1.53
2017-06-17T18:14:28.033Z,1.50
2017-06-17T18:16:55.540Z,1.70
2017-06-17T18:19:23.811Z,1.87
2017-06-17T18:21:52.065Z,1.63
2017-06-17T18:24:19.693Z,1.77
2017-06-17T18:26:47.165Z,1.80
2017-06-17T18:29:14.670Z,2.00
2017-06-17T18:31:42.950Z,1.80
2017-06-17T18:34:11.192Z,2.50
2017-06-17T18:36:38.693Z,1.80
2017-06-17T18:39:06.206Z,2.20
2017-06-17T18:41:33.682Z,1.80
2017-06-17T18:44:01.946Z,1.80
2017-06-17T18:46:29.440Z,2.07
2017-06-17T18:48:56.989Z,1.90
2017-06-17T18:51:25.251Z,2.40
2017-06-17T18:53:53.504Z,1.90
2017-06-17T18:56:21.020Z,2.00
2017-06-17T18:58:48.531Z,1.87
2017-06-17T19:01:16.006Z,2.03
2017-06-17T19:03:44.287Z,2.00
2017-06-17T19:06:12.533Z,1.97
2017-06-17T19:08:40.057Z,1.87
2017-06-17T19:11:07.572Z,1.83
2017-06-17T19:13:35.049Z,2.57
2017-06-17T19:16:03.339Z,1.63
2017-06-17T19:18:30.830Z,2.27
2017-06-17T19:20:58.338Z,1.90
2017-06-17T19:23:26.586Z,1.97
2017-06-17T19:25:54.076Z,1.87
2017-06-17T19:28:22.387Z,2.90
2017-06-17T19:30:49.853Z,2.70
2017-06-17T19:33:17.356Z,2.47
2017-06-17T19:35:45.653Z,2.47
2017-06-17T19:38:13.159Z,2.67
2017-06-17T19:40:40.656Z,2.40
2017-06-17T19:43:08.897Z,2.47
2017-06-17T19:45:36.399Z,2.07
2017-06-17T19:48:03.872Z,2.53
2017-06-17T19:50:31.345Z,2.67
2017-06-17T19:52:58.856Z,2.50
2017-06-17T19:55:27.096Z,2.10
2017-06-17T19:57:54.581Z,2.63
2017-06-17T20:00:22.084Z,2.40
2017-06-17T20:02:49.580Z,2.60
2017-06-17T20:05:17.072Z,2.50
2017-06-17T20:07:45.332Z,2.60
2017-06-17T20:10:12.846Z,2.37
2017-06-17T20:12:40.324Z,2.57
2017-06-17T20:15:07.864Z,2.47
2017-06-17T20:17:35.333Z,2.70
2017-06-17T20:20:02.832Z,2.60
2017-06-17T20:22:36.674Z,2.80
2017-06-17T20:25:04.186Z,2.93
2017-06-17T20:27:31.716Z,2.90
2017-06-17T20:29:59.197Z,3.63
2017-06-17T20:32:26.688Z,3.13
2017-06-17T20:34:54.934Z,2.90
2017-06-17T20:37:22.424Z,2.97
2017-06-17T20:39:49.905Z,4.03
2017-06-17T20:42:17.396Z,3.60
2017-06-17T20:44:44.913Z,4.10
2017-06-17T20:47:12.389Z,4.20
2017-06-17T20:49:39.889Z,3.53
2017-06-17T20:52:07.376Z,4.93
2017-06-17T20:54:35.652Z,4.80
2017-06-17T20:57:03.893Z,4.70
2017-06-17T20:59:31.392Z,4.40
2017-06-17T21:01:58.888Z,4.23
2017-06-17T21:04:26.416Z,4.67
2017-06-17T21:06:53.913Z,4.33
2017-06-17T21:09:21.407Z,4.60
2017-06-17T21:11:48.913Z,4.70
2017-06-17T21:14:16.409Z,5.30
2017-06-17T21:16:43.912Z,4.03
2017-06-17T21:19:11.434Z,3.57
2017-06-17T21:21:38.917Z,4.53
2017-06-17T21:24:06.424Z,3.93
2017-06-17T21:26:33.930Z,4.77
2017-06-17T21:29:01.442Z,4.23
2017-06-17T21:31:28.923Z,3.97
2017-06-17T21:33:56.438Z,4.13
2017-06-17T21:36:23.924Z,4.80
2017-06-17T21:38:51.403Z,4.67
2017-06-17T21:41:19.677Z,5.70
2017-06-17T21:43:47.181Z,4.90
2017-06-17T21:46:14.682Z,4.97
2017-06-17T21:48:42.179Z,4.40
2017-06-17T21:51:09.667Z,4.47
2017-06-17T21:53:37.144Z,4.80
2017-06-17T21:56:04.669Z,4.70
2017-06-17T21:58:32.149Z,5.17
2017-06-17T22:00:59.653Z,4.80
2017-06-17T22:03:27.904Z,4.65
2017-06-17T22:05:55.406Z,4.90
2017-06-17T22:08:22.889Z,5.20
2017-06-17T22:10:50.375Z,5.57
2017-06-17T22:13:17.904Z,4.93
2017-06-17T22:15:45.388Z,5.40
2017-06-17T22:18:12.903Z,5.50
2017-06-17T22:20:40.378Z,4.90
2017-06-17T22:23:07.884Z,5.30
2017-06-17T22:25:36.136Z,5.50
2017-06-17T22:28:03.642Z,5.55
2017-06-17T22:30:31.890Z,5.13
2017-06-17T22:32:59.385Z,6.60
2017-06-17T22:35:26.890Z,5.70
2017-06-17T22:37:54.357Z,5.60
2017-06-17T22:40:21.866Z,4.90
2017-06-17T22:42:49.346Z,5.90
2017-06-17T22:45:16.847Z,5.40
2017-06-17T22:47:45.109Z,5.30
2017-06-17T22:50:12.603Z,5.90
2017-06-17T22:52:40.108Z,5.83
2017-06-17T22:55:07.609Z,5.67
2017-06-17T22:57:35.857Z,5.60
2017-06-17T23:00:03.367Z,6.37
2017-06-17T23:02:30.849Z,5.23
2017-06-17T23:04:58.338Z,5.87
2017-06-17T23:07:25.831Z,5.47
2017-06-17T23:09:53.319Z,5.47
2017-06-17T23:12:20.849Z,4.90
2017-06-17T23:14:49.085Z,4.90
2017-06-17T23:17:16.577Z,5.43
2017-06-17T23:19:44.821Z,5.53
2017-06-17T23:22:12.316Z,5.13
2017-06-17T23:24:39.828Z,6.10
2017-06-17T23:27:07.307Z,5.20
2017-06-17T23:29:34.921Z,6.60
2017-06-17T23:32:02.396Z,6.70
2017-06-17T23:34:29.900Z,6.40
2017-06-17T23:36:58.220Z,5.40
2017-06-17T23:39:25.697Z,5.97
2017-06-17T23:41:53.230Z,5.63
2017-06-17T23:44:20.713Z,4.73
2017-06-17T23:46:48.228Z,5.80
2017-06-17T23:49:15.735Z,5.97
2017-06-17T23:51:43.268Z,5.60
2017-06-17T23:54:10.740Z,5.30
2017-06-17T23:56:38.259Z,5.37
2017-06-17T23:59:05.738Z,5.20
